Besuchen Sie unsere anderen Wetter Stationen:

Template documentation
and downloads

And another site



METAR-Meldungen aus der Umgebung


Warning: A non-numeric value encountered in /is/htdocs/wp10906056_0YHW7Q9XB7/www/weather28/metar/metarDisplay.php on line 166

Warning: A non-numeric value encountered in /is/htdocs/wp10906056_0YHW7Q9XB7/www/weather28/metar/metarDisplay.php on line 166
   
EHVK - Volkel Rnlafb, Netherlands
Entfernung von der Station bis: SW 18 km
Aktualisierung: 14-08-2020 01:55
Bewölkt  
Bewölkt  
   Wind: Süden 9.3 km/h
Wind: Süden 9.3 km/h
Temperatur: 21°C
Taupunkt: 18°C
Luftfeuchte: 83%
Luftdruck: 1012 hPa
Bewölkt: Bewölkt
Sichtbarkeit: More than 10 km
Bewölkung: Bewölkt 7620 m
EHVK 132355Z AUTO 18005KT 9999 OVC250 21/18 Q1012 BLU
EDLV - Niederrhein, Germany
Entfernung von der Station bis: SO 25 km
Aktualisierung: 13-08-2020 23:50
Nicht aktuell
Klar  
Klar  
   Wind: SO 3.7 km/h
Wind: SO 3.7 km/h
Temperatur: 20°C
Taupunkt: 19°C
Luftfeuchte: 94%
Luftdruck: 1012 hPa
Sichtbarkeit: More than 10 km
Bewölkung: Klar
EDLV 132150Z 13002KT CAVOK 20/19 Q1012
EHDL - Deelen Rnlafb, Netherlands
Entfernung von der Station bis: N 35 km
Aktualisierung: 14-08-2020 01:55
Nebel, Bewölkt  
Nebel, Bewölkt  
   Wind: Süden 5.6 km/h
Wind: Süden 5.6 km/h
Temperatur: 20°C
Taupunkt: 20°C
Luftfeuchte: 100%
Luftdruck: 1012 hPa
Bewölkt: Bewölkt
Sichtbarkeit: 4 km
Bewölkung: Bewölkt 1859.3 m
EHDL 132355Z AUTO 17003KT 120V190 3500 BR OVC061 20/20 Q1012 YLO
EHEH - Eindhoven Rnlafb, Netherlands
Entfernung von der Station bis: SW 48 km
Aktualisierung: 14-08-2020 01:55
Nebel, Bewölkt  
Nebel, Bewölkt  
   Wind: variiert 1.9 km/h
Wind: variiert 1.9 km/h
Temperatur: 20°C
Taupunkt: 19°C
Luftfeuchte: 94%
Luftdruck: 1012 hPa
Bewölkt: Bewölkt
Sichtbarkeit: 4 km
Bewölkung: Bewölkt 7010.4 m
EHEH 132355Z AUTO VRB01KT 4000 BR OVC230 20/19 Q1012 GRN
EHGR - Gilze-Rijen Rnla, Netherlands
Entfernung von der Station bis: WSW 70 km
Aktualisierung: 14-08-2020 01:55
Nebel, Bewölkt  
Nebel, Bewölkt  
   Wind: Süden 5.6 km/h
Wind: Süden 5.6 km/h
Temperatur: 19°C
Taupunkt: 18°C
Luftfeuchte: 94%
Luftdruck: 1012 hPa
Bewölkt: Bewölkt
Sichtbarkeit: 5 km
Bewölkung: Bewölkt 6705.6 m
EHGR 132355Z AUTO 19003KT 060V190 5000 BR OVC220 19/18 Q1012 WHT
EBBL - Kleine-Brogel(Ba, Belgium
Entfernung von der Station bis: SSW 71 km
Aktualisierung: 14-08-2020 01:55
Klar  
Klar  
   Wind: variiert 3.7 km/h
Wind: variiert 3.7 km/h
Temperatur: 19°C
Taupunkt: 18°C
Luftfeuchte: 94%
Luftdruck: 1012 hPa
Bewölkt: Klar
Sichtbarkeit: 5 km
Bewölkung: Klar
EBBL 132355Z AUTO VRB02KT 4700 NCD 19/18 Q1012 GRN

Script entwickelt von  Saratoga-weather.org Angepasst für das Template von  Weerstation Leuven

Sie finden unser Wetter-Infos auch auf:

netzwerkwettercom

European Weather Network

WeatherCloud

Weather Underground

AWEKAS

HAMweather, WeatherForYou, PWS Weather

Von uns verwendete Ausrüstung:

Wetterstation
Davis VP2

Davis VP2